createdAt,value
2022-11-13T00:00:53.353Z,100908.70
2022-11-13T00:02:13.895Z,100912.98
2022-11-13T00:03:34.575Z,100906.30
2022-11-13T00:04:56.123Z,100906.22
2022-11-13T00:06:18.650Z,100899.31
2022-11-13T00:07:39.460Z,100908.90
2022-11-13T00:08:59.923Z,100909.52
2022-11-13T00:10:20.480Z,100907.27
2022-11-13T00:11:41.021Z,100914.45
2022-11-13T00:13:01.873Z,100911.09
2022-11-13T00:14:22.317Z,100909.34
2022-11-13T00:15:42.906Z,100910.94
2022-11-13T00:17:03.925Z,100909.09
2022-11-13T00:18:24.250Z,100908.84
2022-11-13T00:19:44.629Z,100900.31
2022-11-13T00:21:06.844Z,100907.27
2022-11-13T00:22:27.255Z,100909.86
2022-11-13T00:23:48.398Z,100905.75
2022-11-13T00:25:09.339Z,100917.88
2022-11-13T00:26:31.124Z,100913.81
2022-11-13T00:27:52.019Z,100898.17
2022-11-13T00:29:12.361Z,100907.14
2022-11-13T00:30:32.964Z,100918.28
2022-11-13T00:31:53.599Z,100900.23
2022-11-13T00:33:18.900Z,100894.97
2022-11-13T00:34:52.055Z,100886.98
2022-11-13T00:36:07.045Z,100891.60
2022-11-13T00:37:27.672Z,100874.23
2022-11-13T00:38:48.683Z,100893.15
2022-11-13T00:40:09.964Z,100903.62
2022-11-13T00:41:30.042Z,100892.70
2022-11-13T00:42:50.588Z,100886.75
2022-11-13T00:44:12.202Z,100884.20
2022-11-13T00:45:32.960Z,100889.26
2022-11-13T00:46:53.451Z,100886.62
2022-11-13T00:48:13.971Z,100910.23
2022-11-13T00:49:34.584Z,100886.00
2022-11-13T00:50:55.408Z,100888.67
2022-11-13T00:52:15.504Z,100881.44
2022-11-13T00:53:36.806Z,100888.75
2022-11-13T00:54:57.290Z,100896.37
2022-11-13T00:56:17.990Z,100881.31
2022-11-13T00:57:38.220Z,100887.20
2022-11-13T00:58:58.829Z,100884.73
2022-11-13T01:00:20.839Z,100884.91
2022-11-13T01:01:41.611Z,100873.56
2022-11-13T01:03:02.120Z,100875.45
2022-11-13T01:04:22.524Z,100885.16
2022-11-13T01:05:45.326Z,100867.70
2022-11-13T01:07:05.819Z,100878.20
2022-11-13T01:08:26.883Z,100891.98
2022-11-13T01:09:51.217Z,100874.90
2022-11-13T01:11:14.690Z,100876.83
2022-11-13T01:12:35.720Z,100865.61
2022-11-13T01:13:56.570Z,100881.20
2022-11-13T01:15:17.300Z,100883.84
2022-11-13T01:16:37.867Z,100873.23
2022-11-13T01:17:58.490Z,100876.61
2022-11-13T01:19:19.514Z,100878.70
2022-11-13T01:20:40.335Z,100875.19
2022-11-13T01:22:00.874Z,100867.41
2022-11-13T01:23:21.455Z,100874.66
2022-11-13T01:24:42.122Z,100880.02
2022-11-13T01:26:12.158Z,100861.80
2022-11-13T01:27:37.424Z,100856.98
2022-11-13T01:28:59.982Z,100866.04
2022-11-13T01:30:21.016Z,100868.63
2022-11-13T01:31:41.582Z,100858.80
2022-11-13T01:33:02.254Z,100867.00
2022-11-13T01:34:22.751Z,100859.80
2022-11-13T01:35:43.758Z,100854.73
2022-11-13T01:37:04.294Z,100852.98
2022-11-13T01:38:25.081Z,100856.76
2022-11-13T01:39:46.675Z,100855.53
2022-11-13T01:41:09.932Z,100856.37
2022-11-13T01:42:33.079Z,100851.80
2022-11-13T01:43:54.853Z,100851.21
2022-11-13T01:45:53.205Z,100845.83
2022-11-13T01:47:14.611Z,100857.50
2022-11-13T01:48:41.781Z,100851.48
2022-11-13T01:50:03.000Z,100848.19
2022-11-13T01:51:33.393Z,100844.39
2022-11-13T01:52:54.445Z,100859.41
2022-11-13T01:55:29.109Z,100849.91
2022-11-13T01:56:51.055Z,100867.63
2022-11-13T01:58:13.215Z,100860.05
2022-11-13T01:59:43.012Z,100870.75
2022-11-13T02:01:03.628Z,100852.60
2022-11-13T02:02:24.254Z,100859.30
2022-11-13T02:03:45.716Z,100863.61
2022-11-13T02:05:07.676Z,100866.28
2022-11-13T02:06:31.721Z,100855.91
2022-11-13T02:07:52.093Z,100856.58
2022-11-13T02:09:14.616Z,100852.31
2022-11-13T02:10:35.038Z,100846.87
2022-11-13T02:11:56.084Z,100859.92
2022-11-13T02:13:16.958Z,100846.06
2022-11-13T02:14:44.225Z,100852.45
2022-11-13T02:16:07.816Z,100846.23
2022-11-13T02:17:34.547Z,100853.10
2022-11-13T02:18:55.148Z,100850.12
2022-11-13T02:20:18.911Z,100852.77
2022-11-13T02:23:20.517Z,100848.53
2022-11-13T02:24:45.599Z,100848.97
2022-11-13T02:26:08.290Z,100860.38
2022-11-13T02:27:49.297Z,100866.45
2022-11-13T02:29:09.823Z,100857.04
2022-11-13T02:30:34.221Z,100858.75
2022-11-13T02:31:55.409Z,100866.57
2022-11-13T02:33:25.210Z,100859.63
2022-11-13T02:34:45.822Z,100853.52
2022-11-13T02:36:09.777Z,100871.80
2022-11-13T02:37:30.447Z,100860.63
2022-11-13T02:38:53.499Z,100868.33
2022-11-13T02:40:14.453Z,100856.31
2022-11-13T02:41:34.872Z,100870.00
2022-11-13T02:42:55.331Z,100866.69
2022-11-13T02:44:15.967Z,100862.45
2022-11-13T02:45:37.012Z,100868.48
2022-11-13T02:46:57.589Z,100869.28
2022-11-13T02:48:18.439Z,100863.14
2022-11-13T02:49:38.765Z,100867.36
2022-11-13T02:50:59.781Z,100861.34
2022-11-13T02:52:20.200Z,100863.05
2022-11-13T02:53:41.424Z,100863.84
2022-11-13T02:55:02.596Z,100869.99
2022-11-13T05:58:24.407Z,100928.18
2022-11-13T05:59:44.803Z,100924.00
2022-11-13T06:01:14.647Z,100930.82
2022-11-13T06:02:35.447Z,100923.00
2022-11-13T06:03:57.794Z,100924.59
2022-11-13T06:05:18.099Z,100926.19
2022-11-13T06:06:39.351Z,100933.09
2022-11-13T06:07:59.755Z,100921.74
2022-11-13T06:09:20.618Z,100916.59
2022-11-13T06:10:42.091Z,100910.36
2022-11-13T06:12:02.638Z,100918.93
2022-11-13T06:13:23.343Z,100926.06
2022-11-13T06:14:43.932Z,100929.56
2022-11-13T06:16:10.229Z,100933.89
2022-11-13T06:17:30.874Z,100931.13
2022-11-13T06:18:54.700Z,100932.92
2022-11-13T06:20:16.115Z,100933.05
2022-11-13T06:21:39.471Z,100939.88
2022-11-13T06:23:00.201Z,100939.83
2022-11-13T06:24:21.006Z,100940.72
2022-11-13T06:25:41.703Z,100938.32
2022-11-13T06:27:01.886Z,100929.61
2022-11-13T06:28:22.423Z,100931.13
2022-11-13T06:29:43.160Z,100937.23
2022-11-13T06:31:07.559Z,100935.56
2022-11-13T06:32:27.700Z,100933.05
2022-11-13T06:33:48.242Z,100936.44
2022-11-13T06:35:08.877Z,100928.53
2022-11-13T06:36:35.256Z,100936.39
2022-11-13T06:37:55.469Z,100922.45
2022-11-13T06:39:16.090Z,100926.64
2022-11-13T06:41:48.919Z,100927.47
2022-11-13T06:43:09.654Z,100938.12
2022-11-13T06:44:30.720Z,100946.69
2022-11-13T06:45:51.222Z,100937.23
2022-11-13T06:47:11.883Z,100936.22
2022-11-13T06:48:33.172Z,100941.16
2022-11-13T06:49:53.522Z,100934.42
2022-11-13T06:51:18.610Z,100937.10
2022-11-13T06:52:39.169Z,100941.46
2022-11-13T06:53:59.839Z,100924.97
2022-11-13T06:55:20.405Z,100931.74
2022-11-13T06:56:40.778Z,100929.80
2022-11-13T06:58:01.489Z,100941.59
2022-11-13T06:59:22.635Z,100937.33
2022-11-13T07:00:43.893Z,100942.47
2022-11-13T07:02:04.806Z,100937.59
2022-11-13T07:03:26.494Z,100936.09
2022-11-13T07:04:47.406Z,100936.94
2022-11-13T07:06:10.692Z,100936.80
2022-11-13T07:07:31.094Z,100932.71
2022-11-13T07:08:52.034Z,100943.00
2022-11-13T07:10:12.252Z,100958.50
2022-11-13T07:11:33.058Z,100935.97
2022-11-13T07:12:54.893Z,100931.56
2022-11-13T07:14:15.673Z,100928.97
2022-11-13T07:15:38.740Z,100933.28
2022-11-13T07:17:10.914Z,100939.27
2022-11-13T07:18:24.479Z,100939.36
2022-11-13T07:19:45.231Z,100941.02
2022-11-13T07:21:08.624Z,100931.48
2022-11-13T07:22:31.404Z,100933.16
2022-11-13T07:23:51.933Z,100933.06
2022-11-13T07:25:12.428Z,100939.13
2022-11-13T07:26:32.830Z,100933.94
2022-11-13T07:27:53.575Z,100946.09
2022-11-13T07:29:14.364Z,100927.87
2022-11-13T07:30:34.801Z,100928.66
2022-11-13T07:31:55.463Z,100922.29
2022-11-13T07:33:16.021Z,100925.83
2022-11-13T07:34:37.005Z,100929.30
2022-11-13T07:35:58.615Z,100947.53
2022-11-13T07:37:20.070Z,100925.23
2022-11-13T07:38:41.173Z,100932.00
2022-11-13T07:40:02.737Z,100924.98
2022-11-13T07:41:22.932Z,100938.12
2022-11-13T07:42:43.466Z,100935.43
2022-11-13T07:44:08.815Z,100930.31
2022-11-13T07:45:28.374Z,100940.57
2022-11-13T07:46:48.790Z,100936.31
2022-11-13T07:48:09.897Z,100936.86
2022-11-13T07:49:30.626Z,100930.73
2022-11-13T07:50:51.098Z,100938.52
2022-11-13T07:52:11.609Z,100935.88
2022-11-13T07:53:32.365Z,100928.05
2022-11-13T07:54:53.313Z,100935.16
2022-11-13T07:56:18.860Z,100943.72
2022-11-13T07:57:36.721Z,100939.42
2022-11-13T07:58:58.594Z,100937.00
2022-11-13T08:00:19.324Z,100933.44
2022-11-13T08:01:39.739Z,100942.89
2022-11-13T08:03:09.501Z,100935.01
2022-11-13T08:04:30.394Z,100937.59
2022-11-13T08:05:50.624Z,100945.20
2022-11-13T08:07:11.950Z,100923.67
2022-11-13T08:08:33.672Z,100933.84
2022-11-13T08:09:53.945Z,100938.23
2022-11-13T08:11:14.863Z,100941.03
2022-11-13T08:12:35.298Z,100932.31
2022-11-13T08:13:55.701Z,100930.59
2022-11-13T08:15:16.432Z,100930.40
2022-11-13T08:16:37.013Z,100933.72
2022-11-13T08:17:58.966Z,100935.30
2022-11-13T08:19:19.197Z,100952.77
2022-11-13T08:20:40.217Z,100938.30
2022-11-13T08:22:01.828Z,100934.67
2022-11-13T08:23:22.887Z,100932.69
2022-11-13T08:24:43.528Z,100941.28
2022-11-13T08:26:05.778Z,100941.91
2022-11-13T08:27:26.645Z,100939.42
2022-11-13T08:28:47.607Z,100935.72
2022-11-13T08:30:09.572Z,100935.66
2022-11-13T08:31:30.381Z,100940.92
2022-11-13T08:32:50.852Z,100936.41
2022-11-13T08:34:11.416Z,100970.50
2022-11-13T08:35:31.702Z,100948.49
2022-11-13T08:36:52.351Z,100930.97
2022-11-13T08:38:13.305Z,100933.42
2022-11-13T08:39:33.737Z,100934.31
2022-11-13T08:41:03.246Z,100934.31
2022-11-13T08:42:22.328Z,100944.56
2022-11-13T08:43:43.036Z,100939.15
2022-11-13T08:45:04.523Z,100921.11
2022-11-13T08:46:25.339Z,100959.17
2022-11-13T08:47:46.853Z,100935.00
2022-11-13T08:49:07.544Z,100925.53
2022-11-13T08:50:29.183Z,100920.38
2022-11-13T08:51:50.424Z,100921.73
2022-11-13T08:53:11.228Z,100907.47
2022-11-13T08:54:31.384Z,100920.47
2022-11-13T08:55:52.075Z,100920.47
2022-11-13T08:57:12.401Z,100924.07
2022-11-13T08:58:32.991Z,100928.59
2022-11-13T08:59:53.824Z,100920.63
2022-11-13T09:01:14.406Z,100902.02
2022-11-13T09:02:34.742Z,100896.44
2022-11-13T09:03:55.516Z,100917.41
2022-11-13T09:05:15.979Z,100915.97
2022-11-13T09:06:36.308Z,100903.84
2022-11-13T09:07:58.752Z,100899.62
2022-11-13T09:09:19.858Z,100903.80
2022-11-13T09:10:40.225Z,100921.36
2022-11-13T09:12:00.891Z,100904.98
2022-11-13T09:13:21.733Z,100896.87
2022-11-13T09:14:42.412Z,100903.84
2022-11-13T09:16:03.068Z,100903.89
2022-11-13T09:17:23.426Z,100904.91
2022-11-13T09:18:43.740Z,100898.64
2022-11-13T09:20:07.675Z,100893.06
2022-11-13T09:21:28.279Z,100900.42
2022-11-13T09:22:48.891Z,100901.91
2022-11-13T09:24:09.809Z,100901.02
2022-11-13T09:25:37.070Z,100897.98
2022-11-13T09:26:53.656Z,100897.73
2022-11-13T09:28:14.300Z,100879.27
2022-11-13T09:29:34.809Z,100888.93
2022-11-13T09:30:55.525Z,100899.86
2022-11-13T09:32:16.209Z,100890.29
2022-11-13T09:33:36.894Z,100908.50
2022-11-13T09:34:57.683Z,100900.39
2022-11-13T09:36:18.212Z,100900.08
2022-11-13T09:37:38.678Z,100901.56
2022-11-13T09:39:00.000Z,100902.29
2022-11-13T09:40:24.874Z,100894.60
2022-11-13T09:41:48.905Z,100899.25
2022-11-13T09:43:13.206Z,100897.54
2022-11-13T09:44:47.340Z,100906.22
2022-11-13T09:46:40.970Z,100894.98
2022-11-13T09:48:22.345Z,100900.97
2022-11-13T09:49:46.822Z,100893.88
2022-11-13T09:51:13.782Z,100889.28
2022-11-13T09:52:37.660Z,100885.27
2022-11-13T09:54:02.734Z,100897.51
2022-11-13T09:55:30.525Z,100896.55
2022-11-13T09:57:16.108Z,100899.45
2022-11-13T09:59:01.007Z,100894.14
2022-11-13T10:00:22.580Z,100882.77
2022-11-13T10:01:56.129Z,100878.20
2022-11-13T10:03:59.875Z,100879.44
2022-11-13T10:05:15.995Z,100880.52
2022-11-13T10:06:52.309Z,100881.41
2022-11-13T10:08:16.839Z,100884.49
2022-11-13T10:09:49.705Z,100893.25
2022-11-13T10:11:22.470Z,100886.80
2022-11-13T10:12:45.616Z,100894.59
2022-11-13T10:14:15.587Z,100882.17
2022-11-13T10:15:38.631Z,100877.23
2022-11-13T10:17:05.438Z,100874.75
2022-11-13T10:18:33.302Z,100873.78
2022-11-13T10:20:03.053Z,100882.88
2022-11-13T10:21:39.440Z,100884.46
2022-11-13T10:23:09.530Z,100887.56
2022-11-13T10:24:33.342Z,100885.84
2022-11-13T10:25:56.221Z,100883.23
2022-11-13T10:27:17.058Z,100877.84
2022-11-13T10:28:53.996Z,100880.02
2022-11-13T10:30:01.646Z,100876.76
2022-11-13T10:31:22.082Z,100890.62
2022-11-13T10:32:43.571Z,100874.99
2022-11-13T10:34:05.260Z,100879.25
2022-11-13T10:35:29.627Z,100880.39
2022-11-13T10:36:56.534Z,100875.94
2022-11-13T10:38:27.570Z,100875.44
2022-11-13T10:39:48.416Z,100863.80
2022-11-13T10:41:14.992Z,100855.41
2022-11-13T10:42:40.600Z,100873.13
2022-11-13T10:44:09.604Z,100867.05
2022-11-13T10:45:30.883Z,100882.84
2022-11-13T10:46:53.691Z,100877.08
2022-11-13T10:48:30.687Z,100863.41
2022-11-13T10:49:53.137Z,100852.71
2022-11-13T10:51:28.748Z,100865.22
2022-11-13T10:52:53.753Z,100863.63
2022-11-13T10:54:29.434Z,100856.63
2022-11-13T10:55:56.031Z,100866.38
2022-11-13T10:57:32.079Z,100862.03
2022-11-13T10:59:10.531Z,100856.02
2022-11-13T11:00:34.607Z,100856.10
2022-11-13T11:01:55.495Z,100857.44
2022-11-13T11:03:21.432Z,100859.25
2022-11-13T11:04:42.118Z,100867.28
2022-11-13T11:06:04.576Z,100862.64
2022-11-13T11:07:25.542Z,100853.84
2022-11-13T11:08:46.952Z,100855.38
2022-11-13T11:10:30.220Z,100846.17
2022-11-13T11:12:06.707Z,100854.98
2022-11-13T11:13:27.587Z,100864.28
2022-11-13T11:15:00.549Z,100858.62
2022-11-13T11:16:24.296Z,100872.56
2022-11-13T11:17:54.281Z,100852.38
2022-11-13T11:19:17.163Z,100851.25
2022-11-13T11:20:44.202Z,100851.04
2022-11-13T11:22:09.279Z,100850.73
2022-11-13T11:23:38.307Z,100845.94
2022-11-13T11:25:35.194Z,100851.04
2022-11-13T11:26:59.588Z,100839.09
2022-11-13T11:28:32.633Z,100841.91
2022-11-13T11:31:23.614Z,100845.09
2022-11-13T11:34:19.149Z,100836.22
2022-11-13T11:35:58.075Z,100840.13
2022-11-13T11:37:25.251Z,100844.06
2022-11-13T11:38:52.882Z,100837.25
2022-11-13T11:40:34.348Z,100861.70
2022-11-13T11:42:10.272Z,100847.06
2022-11-13T11:43:40.053Z,100842.84
2022-11-13T11:45:07.106Z,100854.44
2022-11-13T11:46:29.144Z,100850.73
2022-11-13T11:47:49.951Z,100830.08
2022-11-13T11:49:11.106Z,100826.47
2022-11-13T11:50:45.835Z,100815.31
2022-11-13T11:52:33.959Z,100814.59
2022-11-13T11:53:57.816Z,100834.38
2022-11-13T11:55:27.524Z,100816.03
2022-11-13T11:56:54.471Z,100827.72
2022-11-13T11:58:47.590Z,100832.12
2022-11-13T12:00:19.567Z,100816.48
2022-11-13T12:02:10.766Z,100827.97
2022-11-13T12:04:02.512Z,100833.19
2022-11-13T12:05:43.287Z,100833.28
2022-11-13T12:07:22.942Z,100821.62
2022-11-13T14:30:43.593Z,100826.23
2022-11-13T14:32:13.949Z,100806.84
2022-11-13T14:33:44.256Z,100824.94
2022-11-13T14:35:06.189Z,100817.42
2022-11-13T14:36:32.490Z,100813.17
2022-11-13T14:37:54.401Z,100810.63
2022-11-13T14:39:23.903Z,100802.94
2022-11-13T14:40:49.359Z,100807.02
2022-11-13T14:42:22.927Z,100809.20
2022-11-13T14:43:47.807Z,100807.42
2022-11-13T14:45:17.839Z,100813.46
2022-11-13T14:46:43.889Z,100805.09
2022-11-13T14:48:23.173Z,100804.16
2022-11-13T14:49:56.899Z,100814.84
2022-11-13T14:51:29.595Z,100808.03
2022-11-13T14:52:59.408Z,100812.34
2022-11-13T14:55:08.000Z,100808.81
2022-11-13T14:56:03.028Z,100815.00
2022-11-13T14:57:23.216Z,100810.73
2022-11-13T14:58:46.399Z,100810.73
2022-11-13T15:00:18.757Z,100813.23
2022-11-13T15:01:40.037Z,100811.62
2022-11-13T15:03:02.106Z,100818.73
2022-11-13T15:04:24.261Z,100824.77
2022-11-13T15:05:44.593Z,100822.23
2022-11-13T15:07:25.878Z,100824.05
2022-11-13T15:08:58.371Z,100829.30
2022-11-13T15:10:21.561Z,100825.97
2022-11-13T15:11:43.501Z,100824.19
2022-11-13T15:13:10.790Z,100832.09
2022-11-13T15:14:33.174Z,100827.05
2022-11-13T15:15:53.901Z,100825.23
2022-11-13T15:17:17.771Z,100824.25
2022-11-13T15:18:38.431Z,100826.95
2022-11-13T15:19:59.373Z,100830.43
2022-11-13T15:21:20.232Z,100829.60
2022-11-13T15:22:41.321Z,100828.76
2022-11-13T15:24:02.188Z,100828.76
2022-11-13T15:25:24.680Z,100826.12
2022-11-13T15:26:46.336Z,100826.12
2022-11-13T15:28:09.712Z,100822.63
2022-11-13T15:29:29.763Z,100830.43
2022-11-13T15:30:51.486Z,100826.27
2022-11-13T15:32:14.862Z,100823.68
2022-11-13T15:33:35.347Z,100823.73
2022-11-13T15:34:55.671Z,100833.29
2022-11-13T15:36:16.675Z,100829.89
2022-11-13T15:37:37.217Z,100834.16
2022-11-13T15:39:01.328Z,100817.80
2022-11-13T15:40:21.172Z,100824.86
2022-11-13T15:41:41.640Z,100824.02
2022-11-13T15:43:03.408Z,100834.41
2022-11-13T15:44:24.046Z,100823.34
2022-11-13T15:45:44.687Z,100826.80
2022-11-13T15:47:25.525Z,100828.38
2022-11-13T15:48:47.371Z,100832.09
2022-11-13T15:50:15.511Z,100826.16
2022-11-13T15:51:37.961Z,100822.64
2022-11-13T15:53:04.848Z,100844.34
2022-11-13T15:54:28.341Z,100821.91
2022-11-13T15:55:49.057Z,100820.92
2022-11-13T15:57:20.930Z,100830.44
2022-11-13T15:58:41.857Z,100828.81
2022-11-13T16:00:02.977Z,100833.86
2022-11-13T16:01:24.164Z,100834.79
2022-11-13T16:02:45.530Z,100834.00
2022-11-13T16:04:07.342Z,100838.36
2022-11-13T16:05:28.194Z,100848.00
2022-11-13T16:06:48.764Z,100842.86
2022-11-13T16:08:13.329Z,100839.47
2022-11-13T16:11:20.437Z,100838.68
2022-11-13T16:12:41.897Z,100858.66
2022-11-13T16:14:23.413Z,100841.31
2022-11-13T16:15:42.396Z,100843.83
2022-11-13T16:17:11.881Z,100845.73
2022-11-13T16:18:32.246Z,100850.12
2022-11-13T16:19:55.573Z,100849.33
2022-11-13T16:21:18.021Z,100843.21
2022-11-13T16:22:39.454Z,100845.94
2022-11-13T16:24:00.386Z,100851.88
2022-11-13T16:25:21.711Z,100839.00
2022-11-13T16:26:46.402Z,100852.67
2022-11-13T16:28:17.374Z,100857.07
2022-11-13T16:29:38.149Z,100844.22
2022-11-13T16:30:58.731Z,100839.78
2022-11-13T16:32:19.335Z,100854.39
2022-11-13T16:33:40.333Z,100839.73
2022-11-13T16:35:00.767Z,100855.36
2022-11-13T16:36:22.018Z,100835.69
2022-11-13T16:37:42.333Z,100844.41
2022-11-13T16:39:03.681Z,100837.53
2022-11-13T16:40:26.190Z,100836.17
2022-11-13T16:41:47.780Z,100845.67
2022-11-13T16:43:10.623Z,100835.11
2022-11-13T16:44:31.822Z,100841.27
2022-11-13T16:45:52.578Z,100835.23
2022-11-13T16:47:19.255Z,100827.98
2022-11-13T16:48:39.855Z,100840.31
2022-11-13T16:50:00.700Z,100838.68
2022-11-13T16:51:22.091Z,100834.06
2022-11-13T16:52:43.714Z,100846.10
2022-11-13T16:54:05.414Z,100851.62
2022-11-13T16:55:27.084Z,100846.51
2022-11-13T16:56:47.848Z,100847.25
2022-11-13T16:58:12.757Z,100836.50
2022-11-13T16:59:33.598Z,100836.80
2022-11-13T17:00:59.779Z,100842.25
2022-11-13T17:02:17.834Z,100845.83
2022-11-13T17:03:39.750Z,100851.56
2022-11-13T17:05:01.331Z,100849.77
2022-11-13T17:06:28.321Z,100855.05
2022-11-13T17:07:51.745Z,100846.75
2022-11-13T17:09:13.207Z,100845.13
2022-11-13T17:10:33.651Z,100861.83
2022-11-13T17:11:55.137Z,100860.16
2022-11-13T17:13:17.005Z,100850.78
2022-11-13T17:14:38.327Z,100853.72
2022-11-13T17:16:01.241Z,100856.49
2022-11-13T17:17:24.092Z,100854.91
2022-11-13T17:18:48.172Z,100865.20
2022-11-13T17:20:10.683Z,100869.47
2022-11-13T17:21:31.356Z,100860.05
2022-11-13T17:22:53.894Z,100863.69
2022-11-13T17:24:15.415Z,100852.48
2022-11-13T17:25:36.309Z,100855.11
2022-11-13T17:26:57.009Z,100857.63
2022-11-13T17:28:20.855Z,100855.53
2022-11-13T17:29:42.168Z,100866.40
2022-11-13T17:31:06.306Z,100877.25
2022-11-13T17:32:26.470Z,100863.56
2022-11-13T17:33:46.841Z,100860.13
2022-11-13T17:35:10.538Z,100872.23
2022-11-13T17:36:31.012Z,100870.00
2022-11-13T17:37:52.041Z,100861.46
2022-11-13T17:39:12.672Z,100863.98
2022-11-13T17:40:34.148Z,100871.72
2022-11-13T17:41:56.160Z,100858.83
2022-11-13T17:43:16.798Z,100866.65
2022-11-13T17:44:37.279Z,100866.61
2022-11-13T17:45:58.012Z,100866.65
2022-11-13T17:47:18.568Z,100864.81
2022-11-13T17:48:40.630Z,100882.09
2022-11-13T17:50:07.090Z,100870.00
2022-11-13T17:51:24.451Z,100877.94
2022-11-13T17:52:44.817Z,100871.91
2022-11-13T17:54:06.605Z,100872.78
2022-11-13T17:55:30.371Z,100868.52
2022-11-13T17:56:51.684Z,100880.61
2022-11-13T17:58:12.056Z,100880.68
2022-11-13T17:59:32.321Z,100874.62
2022-11-13T18:00:55.891Z,100885.88
2022-11-13T18:02:17.696Z,100887.62
2022-11-13T18:03:38.861Z,100878.02
2022-11-13T18:04:59.315Z,100885.87
2022-11-13T18:06:20.595Z,100878.89
2022-11-13T18:07:41.993Z,100882.44
2022-11-13T18:09:05.943Z,100874.69
2022-11-13T18:10:27.186Z,100872.83
2022-11-13T18:11:48.256Z,100875.49
2022-11-13T18:13:09.573Z,100890.28
2022-11-13T18:14:32.485Z,100886.92
2022-11-13T18:15:53.074Z,100886.96
2022-11-13T18:17:13.310Z,100891.27
2022-11-13T18:18:34.327Z,100887.73
2022-11-13T18:20:00.373Z,100878.27
2022-11-13T18:21:23.491Z,100888.57
2022-11-13T18:22:49.052Z,100886.92
2022-11-13T18:24:13.257Z,100886.89
2022-11-13T18:25:39.635Z,100884.30
2022-11-13T18:27:00.532Z,100887.80
2022-11-13T18:28:21.164Z,100883.39
2022-11-13T18:29:41.506Z,100876.55
2022-11-13T18:31:09.023Z,100874.03
2022-11-13T18:32:29.778Z,100883.49
2022-11-13T18:33:50.708Z,100871.37
2022-11-13T18:35:11.094Z,100870.46
2022-11-13T18:36:32.922Z,100880.94
2022-11-13T18:37:55.293Z,100887.84
2022-11-13T18:39:16.882Z,100884.41
2022-11-13T18:40:37.674Z,100887.84
2022-11-13T18:41:59.257Z,100883.45
2022-11-13T18:43:19.803Z,100885.25
2022-11-13T18:44:40.436Z,100901.64
2022-11-13T18:46:06.909Z,100879.19
2022-11-13T18:47:27.596Z,100879.11
2022-11-13T18:48:49.316Z,100879.08
2022-11-13T18:50:10.558Z,100882.55
2022-11-13T18:51:31.396Z,100876.45
2022-11-13T18:52:55.201Z,100877.28
2022-11-13T18:54:15.552Z,100873.66
2022-11-13T18:55:36.615Z,100877.28
2022-11-13T18:56:58.209Z,100883.31
2022-11-13T18:58:19.107Z,100875.64
2022-11-13T18:59:39.969Z,100880.06
2022-11-13T19:01:20.548Z,100876.63
2022-11-13T19:02:37.748Z,100875.72
2022-11-13T19:05:25.969Z,100874.91
2022-11-13T19:06:46.846Z,100879.29
2022-11-13T19:08:07.870Z,100880.17
2022-11-13T19:09:29.002Z,100871.48
2022-11-13T19:10:49.888Z,100872.39
2022-11-13T19:12:10.930Z,100873.27
2022-11-13T19:13:32.831Z,100874.98
2022-11-13T19:14:53.384Z,100865.42
2022-11-13T19:16:17.062Z,100871.52
2022-11-13T19:17:38.139Z,100867.14
2022-11-13T19:19:01.840Z,100867.09
2022-11-13T19:20:22.669Z,100870.61
2022-11-13T19:21:44.043Z,100866.22
2022-11-13T19:23:09.221Z,100859.29
2022-11-13T19:24:28.309Z,100868.70
2022-11-13T19:25:49.925Z,100876.48
2022-11-13T19:27:10.798Z,100873.89
2022-11-13T19:28:31.878Z,100888.64
2022-11-13T19:29:52.173Z,100877.50
2022-11-13T19:31:18.549Z,100883.53
2022-11-13T19:32:39.923Z,100882.69
2022-11-13T19:34:03.697Z,100876.63
2022-11-13T19:35:26.837Z,100879.19
2022-11-13T19:36:47.680Z,100875.64
2022-11-13T19:38:08.016Z,100883.39
2022-11-13T19:39:28.726Z,100878.38
2022-11-13T19:40:51.336Z,100891.20
2022-11-13T19:42:11.839Z,100894.73
2022-11-13T19:43:33.940Z,100885.28
2022-11-13T19:44:54.575Z,100892.11
2022-11-13T19:46:17.730Z,100884.37
2022-11-13T19:47:41.356Z,100887.00
2022-11-13T19:49:01.735Z,100887.07
2022-11-13T19:50:22.597Z,100892.25
2022-11-13T19:51:44.145Z,100879.29
2022-11-13T19:53:05.609Z,100876.55
2022-11-13T19:54:26.444Z,100897.40
2022-11-13T19:55:54.401Z,100884.52
2022-11-13T19:57:14.973Z,100893.12
2022-11-13T19:58:36.179Z,100899.19
2022-11-13T19:59:56.679Z,100902.69
2022-11-13T20:01:25.830Z,100906.09
2022-11-13T20:02:47.296Z,100905.21
2022-11-13T20:04:11.512Z,100898.28
2022-11-13T20:05:35.850Z,100898.31
2022-11-13T20:06:57.815Z,100906.16
2022-11-13T20:09:33.269Z,100901.67
2022-11-13T20:10:54.263Z,100894.18
2022-11-13T20:12:15.707Z,100901.98
2022-11-13T20:13:38.875Z,100895.09
2022-11-13T20:14:59.649Z,100892.46
2022-11-13T20:16:19.917Z,100884.72
2022-11-13T20:17:41.559Z,100887.34
2022-11-13T20:19:02.240Z,100877.92
2022-11-13T20:20:22.856Z,100880.55
2022-11-13T20:21:44.635Z,100877.95
2022-11-13T20:23:06.678Z,100877.95
2022-11-13T20:24:28.912Z,100892.66
2022-11-13T20:25:59.948Z,100895.32
2022-11-13T20:27:20.561Z,100890.95
2022-11-13T20:28:41.056Z,100894.55
2022-11-13T20:30:01.677Z,100898.97
2022-11-13T20:31:25.286Z,100896.45
2022-11-13T20:32:45.640Z,100900.78
2022-11-13T20:34:07.282Z,100893.02
2022-11-13T20:35:28.107Z,100900.72
2022-11-13T20:36:49.241Z,100907.62
2022-11-13T20:38:10.098Z,100909.40
2022-11-13T20:39:31.694Z,100907.68
2022-11-13T20:40:52.676Z,100905.99
2022-11-13T20:42:13.544Z,100899.16
2022-11-13T20:43:33.996Z,100895.78
2022-11-13T20:44:58.525Z,100899.19
2022-11-13T20:46:20.459Z,100892.44
2022-11-13T20:47:40.823Z,100892.47
2022-11-13T20:49:01.582Z,100896.75
2022-11-13T20:50:25.355Z,100896.69
2022-11-13T20:51:45.810Z,100888.95
2022-11-13T20:53:06.287Z,100888.02
2022-11-13T20:54:27.126Z,100885.45
2022-11-13T20:56:00.194Z,100898.49
2022-11-13T20:57:16.925Z,100895.93
2022-11-13T20:58:38.346Z,100896.02
2022-11-13T20:59:59.454Z,100890.03
2022-11-13T21:01:22.940Z,100894.30
2022-11-13T21:02:43.394Z,100895.12
2022-11-13T21:04:04.231Z,100901.25
2022-11-13T21:05:26.148Z,100896.08
2022-11-13T21:06:47.820Z,100899.53
2022-11-13T21:08:11.306Z,100895.31
2022-11-13T21:09:32.253Z,100896.23
2022-11-13T21:10:53.225Z,100889.29
2022-11-13T21:12:14.776Z,100889.29
2022-11-13T21:13:35.320Z,100896.19
2022-11-13T21:14:56.644Z,100892.72
2022-11-13T21:16:21.122Z,100890.11
2022-11-13T21:17:41.736Z,100896.16
2022-11-13T21:19:02.517Z,100891.09
2022-11-13T21:20:24.174Z,100886.73
2022-11-13T21:21:45.668Z,100892.75
2022-11-13T21:23:06.071Z,100891.06
2022-11-13T21:24:26.521Z,100897.03
2022-11-13T21:25:47.182Z,100898.72